Flight Track Log - Related Links

Times and Time Zones

All times are in EDT time to prevent confusion due to time zone crossing. See the N161DC flight status page for this flight to view local times or setup timezone preferences in your user account.

Time Position Orientation Groundspeed Altitude Reporting Facility
EDT Latitude Longitude Course Direction KTS MPH feet Rate Location/Type
Sat 04:05:15 PM 42.0314 -80.3067 239° Southwest 101 116 4,400  Level Cleveland Center
Sat 04:06:17 PM 42.0178 -80.3428 243° Southwest 102 117 4,400 48 Level Cleveland Center
Sat 04:07:20 PM 42.0039 -80.3783 242° Southwest 103 119 4,500 48 Climbing Cleveland Center
Sat 04:08:00 PM 41.9891 -80.4058 243° Southwest  Level FlightAware Approximate
Sat 04:08:22 PM 41.9908 -80.4139 244° Southwest 104 120 4,500  Level Cleveland Center
Sat 04:09:00 PM 41.9742 -80.4449 243° Southwest  Level FlightAware Approximate
Sat 04:09:24 PM 41.9767 -80.4567 246° West 104 120 4,500  Level Cleveland Center
Sat 04:10:26 PM 41.9644 -80.4944 246° West 104 120 4,400  Descending Cleveland Center
Sat 04:11:28 PM 41.9508 -80.5300 243° Southwest 105 121 4,500 48 Climbing Cleveland Center
Sat 04:12:30 PM 41.9367 -80.5647 241° Southwest 105 121 4,500 -48 Level Cleveland Center
Sat 04:13:32 PM 41.9258 -80.6025 249° West 105 121 4,400 -48 Descending Cleveland Center
Sat 04:14:34 PM 41.9142 -80.6397 247° West 105 121 4,400 48 Level Cleveland Center
Sat 04:15:36 PM 41.9039 -80.6769 250° West 105 121 4,500 48 Climbing Cleveland Center
Sat 04:16:38 PM 41.8939 -80.7206 253° West 105 121 4,500 -48 Level Cleveland Center
Sat 04:17:40 PM 41.8847 -80.7597 253° West 105 121 4,400 -48 Descending Cleveland Center
Sat 04:18:42 PM 41.8783 -80.8000 258° West 105 121 4,400  Level Cleveland Center
Sat 04:19:44 PM 41.8689 -80.8378 251° West 105 121 4,400  Level Cleveland Center
Sat 04:20:46 PM 41.8558 -80.8739 244° Southwest 105 121 4,400 52 Level Cleveland Center
Sat 04:21:40 PM 41.8436 -80.9058 243° Southwest 101 116 4,500 91 Climbing Cleveland Center
Sat 04:21:52 PM 41.8431 -80.9142 265° West 101 116 4,500  Level Cleveland Center
Sat 04:22:49 PM 41.8364 -80.9422 252° West 100 115 4,500  Level Cleveland Center
Sat 04:23:51 PM 41.8256 -80.9864 252° West 101 116 4,500  Level Cleveland Center
Sat 04:24:53 PM 41.8183 -81.0189 253° West 102 117 4,500  Level Cleveland Center
Sat 04:26:00 PM 41.7993 -81.0568 236° Southwest  Level FlightAware Approximate
Sat 04:33:00 PM 41.6796 -81.2940 236° Southwest  Level FlightAware Approximate
Sat 04:34:00 PM 41.6624 -81.3278 236° Southwest  Level FlightAware Approximate
Sat 04:35:00 PM 41.6453 -81.3616 236° Southwest  Level FlightAware Approximate
Sat 04:36:00 PM 41.6281 -81.3954 236° Southwest  Level FlightAware Approximate
Sat 04:37:00 PM 41.6109 -81.4292 236° Southwest  Level FlightAware Approximate
Sat 04:38:00 PM 41.5938 -81.4629 236° Southwest  Level FlightAware Approximate
Sat 04:39:00 PM 41.5737 -81.4930 217° Southwest  Level FlightAware Approximate
Sat 04:40:00 PM 41.5578 -81.5265 246° West  Level FlightAware Approximate
Sat 04:41:00 PM 41.5454 -81.5638 246° West  Level FlightAware Approximate
Sat 04:42:00 PM 41.5331 -81.6011 252° West  Level FlightAware Approximate
Sat 04:43:00 PM 41.5234 -81.6398 252° West  Level FlightAware Approximate
Sat 04:44:00 PM 41.5167 -81.6667 252° West  Level FlightAware Approximate
Sat 04:45:00 PM 41.5179 -81.6826 143° Southeast  Level Estimated
Sat 04:46:00 PM 41.5179 -81.6826 252° West  Level Estimated
Sat 04:47:00 PM 41.5179 -81.6826 96° East  Level Estimated
Sat 04:48:00 PM 41.5179 -81.6826 252° West  Level Estimated
Sat 04:49:00 PM 41.5179 -81.6826 96° East  Level Estimated
Sat 04:50:00 PM 41.5179 -81.6826 252° West  Level Estimated
Sat 04:51:00 PM 41.5179 -81.6826 96° East  Level Estimated
Sat 04:52:00 PM 41.5179 -81.6826 252° West  Level Estimated
Sat 04:53:00 PM 41.5179 -81.6826 96° East  Level Estimated
Sat 04:54:00 PM 41.5179 -81.6826 252° West  Level Estimated
Sat 04:55:00 PM 41.5179 -81.6826 96° East  Level Estimated
Sat 04:56:00 PM 41.5179 -81.6826 252° West  Level Estimated
Sat 04:57:00 PM 41.5179 -81.6826 96° East  Level Estimated
Sat 04:58:00 PM 41.5179 -81.6826 252° West  Level Estimated
Sat 04:59:00 PM 41.5179 -81.6826 96° East  Level Estimated
Sat 05:00:00 PM 41.5179 -81.6826 252° West  Level Estimated
Sat 05:01:00 PM 41.5179 -81.6826 96° East  Level Estimated

Login

Don't have an account? Register now (free) for customized features, flight alerts, and more!